Sonangol Girassol — C6QR8 — position and weather

sailwx.info

Track history (hours):
 
Tides and Currents Weather Stations Pressure Air Temp Water Temp Dewpoint Dewpoint Depression Visibility Wind Speed Wind Dir Waves Ship Positions

Sonangol Girassol

Last reported at 2017-Nov-26 23:08 UTC. Time now 2017-Dec-18 06:48 UTC.
Position N 27°27' W 015°15'.
Warning: this ship's position is 21 days out of date.

Length 273 m; draft 9 m.

Type: Tanker. MMSI: 309282000.

Date/timePositionNaut miles runAvg speedWind from/ knotsBaromVisibWave heightAir tempDewpointWater temp
2017-Nov-26 23:08N 27°27' W 015°15'214.8
2017-Nov-26 23:00N 27°29' W 015°15'714.6
2017-Nov-26 22:30N 27°36' W 015°12'714.5
2017-Nov-26 22:00N 27°43' W 015°10'714.4
2017-Nov-26 21:30N 27°50' W 015°08'714.0
2017-Nov-26 21:00N 27°56' W 015°05'714.3
2017-Nov-26 20:30N 28°03' W 015°02'714.1
2017-Nov-26 20:00N 28°09' W 014°59'713.7
2017-Nov-26 19:30N 28°16' W 014°56'713.6
2017-Nov-26 19:00N 28°22' W 014°54'713.2
2017-Nov-26 18:30N 28°29' W 014°51'713.6
2017-Nov-26 18:00N 28°35' W 014°48'713.8
2017-Nov-26 17:30N 28°41' W 014°45'713.8
2017-Nov-26 17:00N 28°47' W 014°41'713.7
2017-Nov-26 16:30N 28°53' W 014°38'713.6
2017-Nov-26 16:01N 28°59' W 014°35'713.6
2017-Nov-26 15:30N 29°06' W 014°31'713.9
2017-Nov-26 15:00N 29°12' W 014°28'14713.3
2017-Nov-26 03:55N 31°24' W 013°13'613.3
2017-Nov-26 03:30N 31°29' W 013°10'713.2
2017-Nov-26 03:00N 31°35' W 013°06'713.1
2017-Nov-26 02:30N 31°41' W 013°03'2013.4
2017-Nov-26 01:03N 31°58' W 012°53'113.5
2017-Nov-26 00:58N 31°59' W 012°52'713.5
2017-Nov-26 00:29N 32°05' W 012°49'713.9
2017-Nov-26 00:00N 32°11' W 012°45'814.4
2017-Nov-25 23:29N 32°18' W 012°41'1114.1
2017-Nov-25 22:42N 32°28' W 012°36'314.1
2017-Nov-25 22:30N 32°30' W 012°34'714.1
2017-Nov-25 22:00N 32°36' W 012°30'714.2
2017-Nov-25 21:30N 32°43' W 012°27'714.1
2017-Nov-25 21:00N 32°49' W 012°23'714.2
2017-Nov-25 20:30N 32°56' W 012°19'714.3
2017-Nov-25 20:00N 33°02' W 012°15'1014.3
2017-Nov-25 19:19N 33°11' W 012°10'19713.5
2017-Nov-25 04:46N 36°08' W 010°25'413.7
2017-Nov-25 04:30N 36°11' W 010°23'713.3
2017-Nov-25 04:00N 36°17' W 010°19'813.5
2017-Nov-25 03:24N 36°24' W 010°14'613.4
2017-Nov-25 02:59N 36°29' W 010°11'612.0
2017-Nov-25 02:31N 36°34' W 010°08'612.1
2017-Nov-25 02:00N 36°39' W 010°05'611.6
2017-Nov-25 01:31N 36°45' W 010°02'4911.1
2017-Nov-24 21:08N 37°29' W 009°37'213.8
2017-Nov-24 21:00N 37°31' W 009°36'613.0
2017-Nov-24 20:30N 37°37' W 009°33'713.2
2017-Nov-24 20:00N 37°41' W 009°27'713.1
2017-Nov-24 19:30N 37°47' W 009°23'713.0
2017-Nov-24 19:00N 37°53' W 009°20'612.9
2017-Nov-24 18:30N 37°59' W 009°16'612.5
2017-Nov-24 18:00N 38°04' W 009°12'612.4
2017-Nov-24 17:30N 38°10' W 009°08'612.6
2017-Nov-24 17:00N 38°15' W 009°05'612.8
2017-Nov-24 16:30N 38°21' W 009°01'4 6.9
2017-Nov-24 15:59N 38°24' W 008°59'1 2.9
2017-Nov-24 15:30N 38°23' W 008°59'4 7.2
2017-Nov-24 15:00N 38°26' W 008°59'4 8.8
2017-Nov-24 14:30N 38°30' W 008°55'3 5.5
2017-Nov-24 14:00N 38°29' W 008°52'1 1.4
2017-Nov-24 13:28N 38°28' W 008°51'0 0.7
2017-Nov-24 13:01N 38°28' W 008°51'2 4.5
2017-Nov-24 12:31N 38°28' W 008°48'1 1.2
2017-Nov-24 11:56N 38°28' W 008°47'0 0.0
2017-Nov-24 10:59N 38°28' W 008°47'0 0.0
2017-Nov-24 10:11N 38°28' W 008°47'0 0.0
2017-Nov-24 09:56N 38°28' W 008°47'0 0.0
2017-Nov-24 09:23N 38°28' W 008°47'0 0.0
2017-Nov-24 08:53N 38°28' W 008°47'0 0.0
2017-Nov-24 08:29N 38°28' W 008°47'0 0.0
2017-Nov-24 07:56N 38°28' W 008°47'0 0.0
2017-Nov-24 07:26N 38°28' W 008°47'0 0.0
2017-Nov-24 06:29N 38°28' W 008°47'0 0.0
2017-Nov-24 05:08N 38°28' W 008°47'0 0.0
2017-Nov-24 03:56N 38°28' W 008°47'0 0.0
2017-Nov-24 03:20N 38°28' W 008°47'0 0.0
2017-Nov-24 02:56N 38°28' W 008°47'0 0.0
2017-Nov-24 02:02N 38°28' W 008°47'0 0.0
2017-Nov-24 01:35N 38°28' W 008°47'0 0.0
2017-Nov-24 01:29N 38°28' W 008°47'0 0.0
2017-Nov-24 00:59N 38°28' W 008°47'0 0.0
2017-Nov-24 00:29N 38°28' W 008°47'0 0.0
2017-Nov-23 22:20N 38°28' W 008°47'0 0.0
2017-Nov-23 21:59N 38°28' W 008°47'0 0.0
2017-Nov-23 21:29N 38°28' W 008°47'0 0.0
2017-Nov-23 20:56N 38°28' W 008°47'0 0.0
2017-Nov-23 19:26N 38°28' W 008°47'0 0.0
2017-Nov-23 18:38N 38°28' W 008°47'0 0.0
2017-Nov-23 17:44N 38°28' W 008°47'0 0.0
2017-Nov-23 17:20N 38°28' W 008°47'0 0.0
2017-Nov-23 16:38N 38°28' W 008°47'0 0.0
2017-Nov-23 16:20N 38°28' W 008°47'0 0.0
2017-Nov-23 15:50N 38°28' W 008°47'0 0.0
2017-Nov-23 14:05N 38°28' W 008°47'0 0.0
2017-Nov-23 13:47N 38°28' W 008°47'0 0.0
2017-Nov-23 13:20N 38°28' W 008°47'0 0.0
2017-Nov-23 12:59N 38°28' W 008°47'0 0.0
2017-Nov-23 12:08N 38°28' W 008°47'0 0.0
2017-Nov-23 09:47N 38°28' W 008°47'0 0.0
2017-Nov-23 09:20N 38°28' W 008°47'0 0.0
2017-Nov-23 08:59N 38°28' W 008°47'0 0.0
2017-Nov-23 08:26N 38°28' W 008°47'0 0.0
2017-Nov-23 07:47N 38°28' W 008°47'0 0.0
2017-Nov-23 07:29N 38°28' W 008°47'0 0.0
2017-Nov-23 06:56N 38°28' W 008°47'0 0.0
2017-Nov-23 06:14N 38°28' W 008°47'0 0.0
2017-Nov-23 05:23N 38°28' W 008°47'0 0.0
2017-Nov-23 04:44N 38°28' W 008°47'0 0.0
2017-Nov-23 04:20N 38°28' W 008°47'0 0.0
2017-Nov-23 03:53N 38°28' W 008°47'0 0.0
2017-Nov-23 03:26N 38°28' W 008°47'0 0.0
2017-Nov-23 02:56N 38°28' W 008°47'0 0.0
2017-Nov-23 02:23N 38°28' W 008°47'0 0.0
2017-Nov-23 01:56N 38°28' W 008°47'0 0.0
2017-Nov-23 01:23N 38°28' W 008°47'0 0.0
2017-Nov-23 00:59N 38°28' W 008°47'0 0.0
2017-Nov-22 23:08N 38°28' W 008°47'0 0.0
2017-Nov-22 22:41N 38°28' W 008°47'0 0.0
2017-Nov-22 21:38N 38°28' W 008°47'0 0.0
2017-Nov-22 21:26N 38°28' W 008°47'0 0.0
2017-Nov-22 20:05N 38°28' W 008°47'0 0.0
2017-Nov-22 19:02N 38°28' W 008°47'  
2017-Nov-20 00:29N 38°29' W 008°48'0 0.0
2017-Nov-19 23:59N 38°29' W 008°48'0 0.0
2017-Nov-19 23:29N 38°29' W 008°48'0 0.0
2017-Nov-19 22:59N 38°29' W 008°48'0 0.0
2017-Nov-19 22:29N 38°29' W 008°48'0 0.0
2017-Nov-19 21:59N 38°29' W 008°48'0 0.0
2017-Nov-19 21:29N 38°29' W 008°48'0 0.0
2017-Nov-19 20:59N 38°29' W 008°48'0 0.0
2017-Nov-19 20:26N 38°29' W 008°48'0 0.0
2017-Nov-19 19:59N 38°29' W 008°48'0 0.0
2017-Nov-19 19:29N 38°29' W 008°48'0 0.0
2017-Nov-19 18:59N 38°29' W 008°48'0 0.0
2017-Nov-19 18:29N 38°29' W 008°48'0 0.0
2017-Nov-19 17:59N 38°29' W 008°48'0 0.0
2017-Nov-19 17:26N 38°29' W 008°48'0 0.0
2017-Nov-19 16:59N 38°29' W 008°48'0 0.0
2017-Nov-19 16:29N 38°29' W 008°48'0 0.0
2017-Nov-19 15:56N 38°29' W 008°48'0 0.0
2017-Nov-19 15:29N 38°29' W 008°48'0 0.0
2017-Nov-19 14:59N 38°29' W 008°48'0 0.0
2017-Nov-19 14:26N 38°29' W 008°48'0 0.0
2017-Nov-19 13:59N 38°29' W 008°48'0 0.0
2017-Nov-19 13:23N 38°29' W 008°48'0 0.0
2017-Nov-19 12:53N 38°29' W 008°48'0 0.0
2017-Nov-19 12:29N 38°29' W 008°48'0 0.0
2017-Nov-19 11:53N 38°29' W 008°48'0 0.0
2017-Nov-19 11:29N 38°29' W 008°48'0 0.0
2017-Nov-19 10:56N 38°29' W 008°48'0 0.0
2017-Nov-19 10:29N 38°29' W 008°48'0 0.0
2017-Nov-19 09:59N 38°29' W 008°48'0 0.0
2017-Nov-19 09:29N 38°29' W 008°48'0 0.0
2017-Nov-19 08:59N 38°29' W 008°48'0 0.0
2017-Nov-19 08:29N 38°29' W 008°48'0 0.0
2017-Nov-19 07:59N 38°29' W 008°48'0 0.0
2017-Nov-19 07:29N 38°29' W 008°48'0 0.0
2017-Nov-19 06:59N 38°29' W 008°48'0 0.0
2017-Nov-19 06:29N 38°29' W 008°48'0 0.0
2017-Nov-19 05:56N 38°29' W 008°48'0 0.0
2017-Nov-19 05:29N 38°29' W 008°48'0 0.0
2017-Nov-19 04:59N 38°29' W 008°48'0 0.0
2017-Nov-19 04:29N 38°29' W 008°48'0 0.0
2017-Nov-19 03:59N 38°29' W 008°48'0 0.0
2017-Nov-19 03:29N 38°29' W 008°48'0 0.0
2017-Nov-19 02:59N 38°29' W 008°48'0 0.0
2017-Nov-19 02:29N 38°29' W 008°48'0 0.0
2017-Nov-19 01:59N 38°29' W 008°48'0 0.0
2017-Nov-19 01:29N 38°29' W 008°48'0 0.0
2017-Nov-19 00:59N 38°29' W 008°48'0 0.0
2017-Nov-19 00:26N 38°29' W 008°48'0 0.0
2017-Nov-18 23:59N 38°29' W 008°48'0 0.0
2017-Nov-18 23:29N 38°29' W 008°48'0 0.0
2017-Nov-18 22:59N 38°29' W 008°48'0 0.0
2017-Nov-18 22:29N 38°29' W 008°48'0 0.0
2017-Nov-18 21:59N 38°29' W 008°48'0 0.0
2017-Nov-18 21:29N 38°29' W 008°48'0 0.0
2017-Nov-18 20:59N 38°29' W 008°48'0 0.0
2017-Nov-18 20:29N 38°29' W 008°48'0 0.0
2017-Nov-18 19:59N 38°29' W 008°48'0 0.0
2017-Nov-18 19:29N 38°29' W 008°48'0 0.0
2017-Nov-18 18:59N 38°29' W 008°48'0 0.0
2017-Nov-18 18:29N 38°29' W 008°48'0 0.0
2017-Nov-18 17:59N 38°29' W 008°48'0 0.0
2017-Nov-18 17:29N 38°29' W 008°48'0 0.0
2017-Nov-18 16:59N 38°29' W 008°48'0 0.0
2017-Nov-18 16:29N 38°29' W 008°48'0 0.0
2017-Nov-18 15:56N 38°29' W 008°48'0 0.0
2017-Nov-18 15:29N 38°29' W 008°48'0 0.0
2017-Nov-18 14:59N 38°29' W 008°48'0 0.0
2017-Nov-18 14:29N 38°29' W 008°48'0 0.0
2017-Nov-18 13:59N 38°29' W 008°48'0 0.0
2017-Nov-18 13:29N 38°29' W 008°48'0 0.0
2017-Nov-18 12:59N 38°29' W 008°48'0 0.0
2017-Nov-18 12:23N 38°29' W 008°48'0 0.0
2017-Nov-18 11:59N 38°29' W 008°48'0 0.0
2017-Nov-18 11:29N 38°29' W 008°48'0 0.0
2017-Nov-18 10:59N 38°29' W 008°48'0 0.0
2017-Nov-18 10:29N 38°29' W 008°48'0 0.0
2017-Nov-18 09:59N 38°29' W 008°48'0 0.0
2017-Nov-18 09:23N 38°29' W 008°48'0 0.0
2017-Nov-18 08:59N 38°29' W 008°48'0 0.0
2017-Nov-18 08:29N 38°29' W 008°48'0 0.0
2017-Nov-18 07:59N 38°29' W 008°48'0 0.0
2017-Nov-18 07:29N 38°29' W 008°48'0 0.0
2017-Nov-18 06:59N 38°29' W 008°48'0 0.0
2017-Nov-18 06:29N 38°29' W 008°48'0 0.0
2017-Nov-18 05:59N 38°29' W 008°48'0 0.0
2017-Nov-18 05:29N 38°29' W 008°48'0 0.0
2017-Nov-18 04:59N 38°29' W 008°48'0 0.0
2017-Nov-18 04:29N 38°29' W 008°48'0 0.0
2017-Nov-18 03:59N 38°29' W 008°48'0 0.0
2017-Nov-18 03:29N 38°29' W 008°48'0 0.0
2017-Nov-18 02:59N 38°29' W 008°48'0 0.0
2017-Nov-18 02:29N 38°29' W 008°48'0 0.0
2017-Nov-18 01:59N 38°29' W 008°48'0 0.0
2017-Nov-18 01:29N 38°29' W 008°48'0 0.0
2017-Nov-18 00:59N 38°29' W 008°48'0 0.0
2017-Nov-18 00:29N 38°29' W 008°48'0 0.0
2017-Nov-17 23:59N 38°29' W 008°48'0 0.0
2017-Nov-17 23:29N 38°29' W 008°48'0 0.0
2017-Nov-17 22:59N 38°29' W 008°48'0 0.0
2017-Nov-17 22:26N 38°29' W 008°48'0 0.0
2017-Nov-17 21:59N 38°29' W 008°48'0 0.0
2017-Nov-17 21:29N 38°29' W 008°48'0 0.0
2017-Nov-17 20:59N 38°29' W 008°48'0 0.0
2017-Nov-17 20:29N 38°29' W 008°48'0 0.0
2017-Nov-17 19:59N 38°29' W 008°48'0 0.0
2017-Nov-17 19:29N 38°29' W 008°48'0 0.0
2017-Nov-17 18:59N 38°29' W 008°48'0 0.0
2017-Nov-17 18:29N 38°29' W 008°48'0 0.0
2017-Nov-17 17:59N 38°29' W 008°48'0 0.0
2017-Nov-17 17:29N 38°29' W 008°48'0 0.0
2017-Nov-17 16:56N 38°29' W 008°48'0 0.0
2017-Nov-17 16:29N 38°29' W 008°48'0 0.0
2017-Nov-17 15:59N 38°29' W 008°48'0 0.0
2017-Nov-17 15:29N 38°29' W 008°48'0 0.0
2017-Nov-17 14:56N 38°29' W 008°48'0 0.0
2017-Nov-17 14:29N 38°29' W 008°48'0 0.0
2017-Nov-17 13:59N 38°29' W 008°48'0 0.0
2017-Nov-17 13:29N 38°29' W 008°48'0 0.0
2017-Nov-17 12:59N 38°29' W 008°48'0 0.0
2017-Nov-17 12:26N 38°29' W 008°48'0 0.0
2017-Nov-17 11:59N 38°29' W 008°48'0 0.0
2017-Nov-17 11:29N 38°29' W 008°48'0 0.0
2017-Nov-17 10:59N 38°29' W 008°48'0 0.0
2017-Nov-17 10:26N 38°29' W 008°48'0 0.0
2017-Nov-17 09:59N 38°29' W 008°48'0 0.0
2017-Nov-17 09:29N 38°29' W 008°48'0 0.0
2017-Nov-17 08:59N 38°29' W 008°48'0 0.0
2017-Nov-17 08:29N 38°29' W 008°48'0 0.0
2017-Nov-17 07:53N 38°29' W 008°48'0 0.0
2017-Nov-17 07:29N 38°29' W 008°48'0 0.0
2017-Nov-17 06:59N 38°29' W 008°48'0 0.0
2017-Nov-17 06:29N 38°29' W 008°48'0 0.0
2017-Nov-17 05:59N 38°29' W 008°48'0 0.0
2017-Nov-17 05:29N 38°29' W 008°48'0 0.0
2017-Nov-17 04:59N 38°29' W 008°48'0 0.0
2017-Nov-17 04:29N 38°29' W 008°48'0 0.0
2017-Nov-17 03:59N 38°29' W 008°48'0 0.0
2017-Nov-17 03:29N 38°29' W 008°48'0 0.0
2017-Nov-17 02:59N 38°29' W 008°48'0 0.0
2017-Nov-17 02:29N 38°29' W 008°48'0 0.0
2017-Nov-17 01:59N 38°29' W 008°48'0 0.0
2017-Nov-17 01:29N 38°29' W 008°48'0 0.0
2017-Nov-17 00:59N 38°29' W 008°48'0 0.0
2017-Nov-17 00:26N 38°29' W 008°48'0 0.0
2017-Nov-16 23:59N 38°29' W 008°48'0 0.0
2017-Nov-16 23:29N 38°29' W 008°48'  
Track history (hours):
 
Tides and Currents Weather Stations Pressure Air Temp Water Temp Dewpoint Dewpoint Depression Visibility Wind Speed Wind Dir Waves Ship Positions

Sonangol Girassol

Last reported at 2017-Nov-26 23:08 UTC. Time now 2017-Dec-18 06:48 UTC.
Position N 27°27' W 015°15'.
Warning: this ship's position is 21 days out of date.

Length 273 m; draft 9 m.

Type: Tanker. MMSI: 309282000.

Date/timePositionNaut miles runAvg speedWind from/ knotsBaromVisibWave heightAir tempDewpointWater temp
2017-Nov-26 23:08N 27°27' W 015°15'214.8
2017-Nov-26 23:00N 27°29' W 015°15'714.6
2017-Nov-26 22:30N 27°36' W 015°12'714.5
2017-Nov-26 22:00N 27°43' W 015°10'714.4
2017-Nov-26 21:30N 27°50' W 015°08'714.0
2017-Nov-26 21:00N 27°56' W 015°05'714.3
2017-Nov-26 20:30N 28°03' W 015°02'714.1
2017-Nov-26 20:00N 28°09' W 014°59'713.7
2017-Nov-26 19:30N 28°16' W 014°56'713.6
2017-Nov-26 19:00N 28°22' W 014°54'713.2
2017-Nov-26 18:30N 28°29' W 014°51'713.6
2017-Nov-26 18:00N 28°35' W 014°48'713.8
2017-Nov-26 17:30N 28°41' W 014°45'713.8
2017-Nov-26 17:00N 28°47' W 014°41'713.7
2017-Nov-26 16:30N 28°53' W 014°38'713.6
2017-Nov-26 16:01N 28°59' W 014°35'713.6
2017-Nov-26 15:30N 29°06' W 014°31'713.9
2017-Nov-26 15:00N 29°12' W 014°28'14713.3
2017-Nov-26 03:55N 31°24' W 013°13'613.3
2017-Nov-26 03:30N 31°29' W 013°10'713.2
2017-Nov-26 03:00N 31°35' W 013°06'713.1
2017-Nov-26 02:30N 31°41' W 013°03'2013.4
2017-Nov-26 01:03N 31°58' W 012°53'113.5
2017-Nov-26 00:58N 31°59' W 012°52'713.5
2017-Nov-26 00:29N 32°05' W 012°49'713.9
2017-Nov-26 00:00N 32°11' W 012°45'814.4
2017-Nov-25 23:29N 32°18' W 012°41'1114.1
2017-Nov-25 22:42N 32°28' W 012°36'314.1
2017-Nov-25 22:30N 32°30' W 012°34'714.1
2017-Nov-25 22:00N 32°36' W 012°30'714.2
2017-Nov-25 21:30N 32°43' W 012°27'714.1
2017-Nov-25 21:00N 32°49' W 012°23'714.2
2017-Nov-25 20:30N 32°56' W 012°19'714.3
2017-Nov-25 20:00N 33°02' W 012°15'1014.3
2017-Nov-25 19:19N 33°11' W 012°10'19713.5
2017-Nov-25 04:46N 36°08' W 010°25'413.7
2017-Nov-25 04:30N 36°11' W 010°23'713.3
2017-Nov-25 04:00N 36°17' W 010°19'813.5
2017-Nov-25 03:24N 36°24' W 010°14'613.4
2017-Nov-25 02:59N 36°29' W 010°11'612.0
2017-Nov-25 02:31N 36°34' W 010°08'612.1
2017-Nov-25 02:00N 36°39' W 010°05'611.6
2017-Nov-25 01:31N 36°45' W 010°02'4911.1
2017-Nov-24 21:08N 37°29' W 009°37'213.8
2017-Nov-24 21:00N 37°31' W 009°36'613.0
2017-Nov-24 20:30N 37°37' W 009°33'713.2
2017-Nov-24 20:00N 37°41' W 009°27'713.1
2017-Nov-24 19:30N 37°47' W 009°23'713.0
2017-Nov-24 19:00N 37°53' W 009°20'612.9
2017-Nov-24 18:30N 37°59' W 009°16'612.5
2017-Nov-24 18:00N 38°04' W 009°12'612.4
2017-Nov-24 17:30N 38°10' W 009°08'612.6
2017-Nov-24 17:00N 38°15' W 009°05'612.8
2017-Nov-24 16:30N 38°21' W 009°01'4 6.9
2017-Nov-24 15:59N 38°24' W 008°59'1 2.9
2017-Nov-24 15:30N 38°23' W 008°59'4 7.2
2017-Nov-24 15:00N 38°26' W 008°59'4 8.8
2017-Nov-24 14:30N 38°30' W 008°55'3 5.5
2017-Nov-24 14:00N 38°29' W 008°52'1 1.4
2017-Nov-24 13:28N 38°28' W 008°51'0 0.7
2017-Nov-24 13:01N 38°28' W 008°51'2 4.5
2017-Nov-24 12:31N 38°28' W 008°48'1 1.2
2017-Nov-24 11:56N 38°28' W 008°47'0 0.0
2017-Nov-24 10:59N 38°28' W 008°47'0 0.0
2017-Nov-24 10:11N 38°28' W 008°47'0 0.0
2017-Nov-24 09:56N 38°28' W 008°47'0 0.0
2017-Nov-24 09:23N 38°28' W 008°47'0 0.0
2017-Nov-24 08:53N 38°28' W 008°47'0 0.0
2017-Nov-24 08:29N 38°28' W 008°47'0 0.0
2017-Nov-24 07:56N 38°28' W 008°47'0 0.0
2017-Nov-24 07:26N 38°28' W 008°47'0 0.0
2017-Nov-24 06:29N 38°28' W 008°47'0 0.0
2017-Nov-24 05:08N 38°28' W 008°47'0 0.0
2017-Nov-24 03:56N 38°28' W 008°47'0 0.0
2017-Nov-24 03:20N 38°28' W 008°47'0 0.0
2017-Nov-24 02:56N 38°28' W 008°47'0 0.0
2017-Nov-24 02:02N 38°28' W 008°47'0 0.0
2017-Nov-24 01:35N 38°28' W 008°47'0 0.0
2017-Nov-24 01:29N 38°28' W 008°47'0 0.0
2017-Nov-24 00:59N 38°28' W 008°47'0 0.0
2017-Nov-24 00:29N 38°28' W 008°47'0 0.0
2017-Nov-23 22:20N 38°28' W 008°47'0 0.0
2017-Nov-23 21:59N 38°28' W 008°47'0 0.0
2017-Nov-23 21:29N 38°28' W 008°47'0 0.0
2017-Nov-23 20:56N 38°28' W 008°47'0 0.0
2017-Nov-23 19:26N 38°28' W 008°47'0 0.0
2017-Nov-23 18:38N 38°28' W 008°47'0 0.0
2017-Nov-23 17:44N 38°28' W 008°47'0 0.0
2017-Nov-23 17:20N 38°28' W 008°47'0 0.0
2017-Nov-23 16:38N 38°28' W 008°47'0 0.0
2017-Nov-23 16:20N 38°28' W 008°47'0 0.0
2017-Nov-23 15:50N 38°28' W 008°47'0 0.0
2017-Nov-23 14:05N 38°28' W 008°47'0 0.0
2017-Nov-23 13:47N 38°28' W 008°47'0 0.0
2017-Nov-23 13:20N 38°28' W 008°47'0 0.0
2017-Nov-23 12:59N 38°28' W 008°47'0 0.0
2017-Nov-23 12:08N 38°28' W 008°47'0 0.0
2017-Nov-23 09:47N 38°28' W 008°47'0 0.0
2017-Nov-23 09:20N 38°28' W 008°47'0 0.0
2017-Nov-23 08:59N 38°28' W 008°47'0 0.0
2017-Nov-23 08:26N 38°28' W 008°47'0 0.0
2017-Nov-23 07:47N 38°28' W 008°47'0 0.0
2017-Nov-23 07:29N 38°28' W 008°47'0 0.0
2017-Nov-23 06:56N 38°28' W 008°47'0 0.0
2017-Nov-23 06:14N 38°28' W 008°47'0 0.0
2017-Nov-23 05:23N 38°28' W 008°47'0 0.0
2017-Nov-23 04:44N 38°28' W 008°47'0 0.0
2017-Nov-23 04:20N 38°28' W 008°47'0 0.0
2017-Nov-23 03:53N 38°28' W 008°47'0 0.0
2017-Nov-23 03:26N 38°28' W 008°47'0 0.0
2017-Nov-23 02:56N 38°28' W 008°47'0 0.0
2017-Nov-23 02:23N 38°28' W 008°47'0 0.0
2017-Nov-23 01:56N 38°28' W 008°47'0 0.0
2017-Nov-23 01:23N 38°28' W 008°47'0 0.0
2017-Nov-23 00:59N 38°28' W 008°47'0 0.0
2017-Nov-22 23:08N 38°28' W 008°47'0 0.0
2017-Nov-22 22:41N 38°28' W 008°47'0 0.0
2017-Nov-22 21:38N 38°28' W 008°47'0 0.0
2017-Nov-22 21:26N 38°28' W 008°47'0 0.0
2017-Nov-22 20:05N 38°28' W 008°47'0 0.0
2017-Nov-22 19:02N 38°28' W 008°47'  
2017-Nov-20 00:29N 38°29' W 008°48'0 0.0
2017-Nov-19 23:59N 38°29' W 008°48'0 0.0
2017-Nov-19 23:29N 38°29' W 008°48'0 0.0
2017-Nov-19 22:59N 38°29' W 008°48'0 0.0
2017-Nov-19 22:29N 38°29' W 008°48'0 0.0
2017-Nov-19 21:59N 38°29' W 008°48'0 0.0
2017-Nov-19 21:29N 38°29' W 008°48'0 0.0
2017-Nov-19 20:59N 38°29' W 008°48'0 0.0
2017-Nov-19 20:26N 38°29' W 008°48'0 0.0
2017-Nov-19 19:59N 38°29' W 008°48'0 0.0
2017-Nov-19 19:29N 38°29' W 008°48'0 0.0
2017-Nov-19 18:59N 38°29' W 008°48'0 0.0
2017-Nov-19 18:29N 38°29' W 008°48'0 0.0
2017-Nov-19 17:59N 38°29' W 008°48'0 0.0
2017-Nov-19 17:26N 38°29' W 008°48'0 0.0
2017-Nov-19 16:59N 38°29' W 008°48'0 0.0
2017-Nov-19 16:29N 38°29' W 008°48'0 0.0
2017-Nov-19 15:56N 38°29' W 008°48'0 0.0
2017-Nov-19 15:29N 38°29' W 008°48'0 0.0
2017-Nov-19 14:59N 38°29' W 008°48'0 0.0
2017-Nov-19 14:26N 38°29' W 008°48'0 0.0
2017-Nov-19 13:59N 38°29' W 008°48'0 0.0
2017-Nov-19 13:23N 38°29' W 008°48'0 0.0
2017-Nov-19 12:53N 38°29' W 008°48'0 0.0
2017-Nov-19 12:29N 38°29' W 008°48'0 0.0
2017-Nov-19 11:53N 38°29' W 008°48'0 0.0
2017-Nov-19 11:29N 38°29' W 008°48'0 0.0
2017-Nov-19 10:56N 38°29' W 008°48'0 0.0
2017-Nov-19 10:29N 38°29' W 008°48'0 0.0
2017-Nov-19 09:59N 38°29' W 008°48'0 0.0
2017-Nov-19 09:29N 38°29' W 008°48'0 0.0
2017-Nov-19 08:59N 38°29' W 008°48'0 0.0
2017-Nov-19 08:29N 38°29' W 008°48'0 0.0
2017-Nov-19 07:59N 38°29' W 008°48'0 0.0
2017-Nov-19 07:29N 38°29' W 008°48'0 0.0
2017-Nov-19 06:59N 38°29' W 008°48'0 0.0
2017-Nov-19 06:29N 38°29' W 008°48'0 0.0
2017-Nov-19 05:56N 38°29' W 008°48'0 0.0
2017-Nov-19 05:29N 38°29' W 008°48'0 0.0
2017-Nov-19 04:59N 38°29' W 008°48'0 0.0
2017-Nov-19 04:29N 38°29' W 008°48'0 0.0
2017-Nov-19 03:59N 38°29' W 008°48'0 0.0
2017-Nov-19 03:29N 38°29' W 008°48'0 0.0
2017-Nov-19 02:59N 38°29' W 008°48'0 0.0
2017-Nov-19 02:29N 38°29' W 008°48'0 0.0
2017-Nov-19 01:59N 38°29' W 008°48'0 0.0
2017-Nov-19 01:29N 38°29' W 008°48'0 0.0
2017-Nov-19 00:59N 38°29' W 008°48'0 0.0
2017-Nov-19 00:26N 38°29' W 008°48'0 0.0
2017-Nov-18 23:59N 38°29' W 008°48'0 0.0
2017-Nov-18 23:29N 38°29' W 008°48'0 0.0
2017-Nov-18 22:59N 38°29' W 008°48'0 0.0
2017-Nov-18 22:29N 38°29' W 008°48'0 0.0
2017-Nov-18 21:59N 38°29' W 008°48'0 0.0
2017-Nov-18 21:29N 38°29' W 008°48'0 0.0
2017-Nov-18 20:59N 38°29' W 008°48'0 0.0
2017-Nov-18 20:29N 38°29' W 008°48'0 0.0
2017-Nov-18 19:59N 38°29' W 008°48'0 0.0
2017-Nov-18 19:29N 38°29' W 008°48'0 0.0
2017-Nov-18 18:59N 38°29' W 008°48'0 0.0
2017-Nov-18 18:29N 38°29' W 008°48'0 0.0
2017-Nov-18 17:59N 38°29' W 008°48'0 0.0
2017-Nov-18 17:29N 38°29' W 008°48'0 0.0
2017-Nov-18 16:59N 38°29' W 008°48'0 0.0
2017-Nov-18 16:29N 38°29' W 008°48'0 0.0
2017-Nov-18 15:56N 38°29' W 008°48'0 0.0
2017-Nov-18 15:29N 38°29' W 008°48'0 0.0
2017-Nov-18 14:59N 38°29' W 008°48'0 0.0
2017-Nov-18 14:29N 38°29' W 008°48'0 0.0
2017-Nov-18 13:59N 38°29' W 008°48'0 0.0
2017-Nov-18 13:29N 38°29' W 008°48'0 0.0
2017-Nov-18 12:59N 38°29' W 008°48'0 0.0
2017-Nov-18 12:23N 38°29' W 008°48'0 0.0
2017-Nov-18 11:59N 38°29' W 008°48'0 0.0
2017-Nov-18 11:29N 38°29' W 008°48'0 0.0
2017-Nov-18 10:59N 38°29' W 008°48'0 0.0
2017-Nov-18 10:29N 38°29' W 008°48'0 0.0
2017-Nov-18 09:59N 38°29' W 008°48'0 0.0
2017-Nov-18 09:23N 38°29' W 008°48'0 0.0
2017-Nov-18 08:59N 38°29' W 008°48'0 0.0
2017-Nov-18 08:29N 38°29' W 008°48'0 0.0
2017-Nov-18 07:59N 38°29' W 008°48'0 0.0
2017-Nov-18 07:29N 38°29' W 008°48'0 0.0
2017-Nov-18 06:59N 38°29' W 008°48'0 0.0
2017-Nov-18 06:29N 38°29' W 008°48'0 0.0
2017-Nov-18 05:59N 38°29' W 008°48'0 0.0
2017-Nov-18 05:29N 38°29' W 008°48'0 0.0
2017-Nov-18 04:59N 38°29' W 008°48'0 0.0
2017-Nov-18 04:29N 38°29' W 008°48'0 0.0
2017-Nov-18 03:59N 38°29' W 008°48'0 0.0
2017-Nov-18 03:29N 38°29' W 008°48'0 0.0
2017-Nov-18 02:59N 38°29' W 008°48'0 0.0
2017-Nov-18 02:29N 38°29' W 008°48'0 0.0
2017-Nov-18 01:59N 38°29' W 008°48'0 0.0
2017-Nov-18 01:29N 38°29' W 008°48'0 0.0
2017-Nov-18 00:59N 38°29' W 008°48'0 0.0
2017-Nov-18 00:29N 38°29' W 008°48'0 0.0
2017-Nov-17 23:59N 38°29' W 008°48'0 0.0
2017-Nov-17 23:29N 38°29' W 008°48'0 0.0
2017-Nov-17 22:59N 38°29' W 008°48'0 0.0
2017-Nov-17 22:26N 38°29' W 008°48'0 0.0
2017-Nov-17 21:59N 38°29' W 008°48'0 0.0
2017-Nov-17 21:29N 38°29' W 008°48'0 0.0
2017-Nov-17 20:59N 38°29' W 008°48'0 0.0
2017-Nov-17 20:29N 38°29' W 008°48'0 0.0
2017-Nov-17 19:59N 38°29' W 008°48'0 0.0
2017-Nov-17 19:29N 38°29' W 008°48'0 0.0
2017-Nov-17 18:59N 38°29' W 008°48'0 0.0
2017-Nov-17 18:29N 38°29' W 008°48'0 0.0
2017-Nov-17 17:59N 38°29' W 008°48'0 0.0
2017-Nov-17 17:29N 38°29' W 008°48'0 0.0
2017-Nov-17 16:56N 38°29' W 008°48'0 0.0
2017-Nov-17 16:29N 38°29' W 008°48'0 0.0
2017-Nov-17 15:59N 38°29' W 008°48'0 0.0
2017-Nov-17 15:29N 38°29' W 008°48'0 0.0
2017-Nov-17 14:56N 38°29' W 008°48'0 0.0
2017-Nov-17 14:29N 38°29' W 008°48'0 0.0
2017-Nov-17 13:59N 38°29' W 008°48'0 0.0
2017-Nov-17 13:29N 38°29' W 008°48'0 0.0
2017-Nov-17 12:59N 38°29' W 008°48'0 0.0
2017-Nov-17 12:26N 38°29' W 008°48'0 0.0
2017-Nov-17 11:59N 38°29' W 008°48'0 0.0
2017-Nov-17 11:29N 38°29' W 008°48'0 0.0
2017-Nov-17 10:59N 38°29' W 008°48'0 0.0
2017-Nov-17 10:26N 38°29' W 008°48'0 0.0
2017-Nov-17 09:59N 38°29' W 008°48'0 0.0
2017-Nov-17 09:29N 38°29' W 008°48'0 0.0
2017-Nov-17 08:59N 38°29' W 008°48'0 0.0
2017-Nov-17 08:29N 38°29' W 008°48'0 0.0
2017-Nov-17 07:53N 38°29' W 008°48'0 0.0
2017-Nov-17 07:29N 38°29' W 008°48'0 0.0
2017-Nov-17 06:59N 38°29' W 008°48'0 0.0
2017-Nov-17 06:29N 38°29' W 008°48'0 0.0
2017-Nov-17 05:59N 38°29' W 008°48'0 0.0
2017-Nov-17 05:29N 38°29' W 008°48'0 0.0
2017-Nov-17 04:59N 38°29' W 008°48'0 0.0
2017-Nov-17 04:29N 38°29' W 008°48'0 0.0
2017-Nov-17 03:59N 38°29' W 008°48'0 0.0
2017-Nov-17 03:29N 38°29' W 008°48'0 0.0
2017-Nov-17 02:59N 38°29' W 008°48'0 0.0
2017-Nov-17 02:29N 38°29' W 008°48'0 0.0
2017-Nov-17 01:59N 38°29' W 008°48'0 0.0
2017-Nov-17 01:29N 38°29' W 008°48'0 0.0
2017-Nov-17 00:59N 38°29' W 008°48'0 0.0
2017-Nov-17 00:26N 38°29' W 008°48'0 0.0
2017-Nov-16 23:59N 38°29' W 008°48'0 0.0
2017-Nov-16 23:29N 38°29' W 008°48'  

Dump ship's entire track history